Leyendecker II PSRC

2021-01-22 06:40:00

  • imperial
Date Time Air Temperature Relative Humidity Dewpoint Heat Index Wind Speed Wind Dir. Rain Solar Radiation Soil Temperature
2m 2m 3m 3m 10cm
US/Mountain F % F F MPH deg in MJ/m^2 F
max avg avg
2021-01-21 06:45:00 39.5 95.4 38.3 39.5 1.3 2.1 1.6 2.5 357.2 0.00 0.0000000 44.0
2021-01-21 06:50:00 39.6 95.5 38.4 39.6 1.7 2.4 1.8 2.4 359.1 0.00 0.0000000 44.0
2021-01-21 06:55:00 39.7 95.4 38.5 39.7 1.2 1.7 1.4 7.1 3.0 0.00 0.0000018 44.0
2021-01-21 07:00:00 39.8 95.3 38.6 39.8 0.0 1.3 0.4 12.4 5.4 0.00 0.0000993 43.9
2021-01-21 07:05:00 39.9 95.3 38.6 39.9 0.0 0.0 0.0 13.4 0.0 0.00 0.0003155 43.9
2021-01-21 07:10:00 39.8 95.2 38.6 39.8 0.0 0.0 0.0 8.9 0.0 0.00 0.0006113 43.9
2021-01-21 07:15:00 39.9 95.2 38.6 39.9 1.5 1.7 0.6 3.2 3.5 0.00 0.0012270 43.9
2021-01-21 07:20:00 39.8 95.2 38.6 39.8 1.7 1.9 1.5 259.0 347.9 0.00 0.0036621 43.9
2021-01-21 07:25:00 39.8 95.6 38.7 39.8 2.1 2.1 1.6 256.8 193.6 0.00 0.0067284 43.9
2021-01-21 07:30:00 39.9 95.7 38.8 39.9 2.1 2.2 1.7 60.1 166.5 0.00 0.0082171 43.9
2021-01-21 07:35:00 40.1 95.9 39.0 40.1 0.0 1.9 0.8 255.3 21.2 0.00 0.0118973 43.9
2021-01-21 07:40:00 40.5 96.1 39.5 40.5 0.0 0.0 0.0 177.7 0.0 0.00 0.0121542 43.9
2021-01-21 07:45:00 40.7 95.9 39.7 40.7 0.8 0.8 0.1 208.3 161.4 0.00 0.0129976 43.9
2021-01-21 07:50:00 40.9 96.0 39.8 40.9 0.0 1.7 0.9 187.2 89.5 0.00 0.0175021 43.9
2021-01-21 07:55:00 41.3 95.9 40.3 41.3 0.0 0.0 0.0 204.9 0.0 0.00 0.0257897 43.9
2021-01-21 08:00:00 41.6 95.3 40.3 41.6 2.1 2.4 1.4 30.0 158.4 0.00 0.0229203 43.9
2021-01-21 08:05:00 41.8 94.9 40.4 41.8 1.3 2.8 2.1 166.3 153.4 0.00 0.0206253 44.0
2021-01-21 08:10:00 41.8 94.5 40.3 41.8 1.9 2.2 1.6 56.3 165.1 0.00 0.0179733 43.9
2021-01-21 08:15:00 41.8 94.0 40.2 41.8 1.9 2.4 2.0 210.1 170.5 0.00 0.0189308 44.0
2021-01-21 08:20:00 42.2 94.0 40.6 42.2 2.8 2.8 2.1 196.8 126.4 0.00 0.0235196 44.0
2021-01-21 08:25:00 42.1 93.2 40.3 42.1 2.2 4.0 2.8 58.7 83.2 0.00 0.0233848 44.0
2021-01-21 08:30:00 42.1 92.9 40.2 42.1 1.9 3.0 2.0 205.8 107.5 0.00 0.0203418 43.9
2021-01-21 08:35:00 42.3 92.8 40.3 42.3 2.4 2.6 1.9 208.9 176.8 0.00 0.0154802 43.9
2021-01-21 08:40:00 42.4 92.9 40.5 42.4 1.3 2.6 1.9 53.3 129.6 0.00 0.0156949 44.0
2021-01-21 08:45:00 42.7 92.6 40.7 42.7 2.1 2.1 1.0 48.9 75.2 0.01 0.0188586 44.0
2021-01-21 08:50:00 42.7 92.3 40.6 42.7 1.5 2.8 2.1 133.2 154.5 0.00 0.0220683 44.0
2021-01-21 08:55:00 42.8 92.3 40.7 42.8 2.2 2.6 2.0 156.9 132.1 0.00 0.0233581 44.0
2021-01-21 09:00:00 43.0 92.3 40.9 43.0 1.9 2.4 2.0 4.7 114.6 0.00 0.0270867 44.0
2021-01-21 09:05:00 43.2 92.2 41.1 43.2 2.4 2.6 2.2 73.1 85.8 0.00 0.0316684 44.0
2021-01-21 09:10:00 43.4 92.3 41.3 43.4 2.4 2.6 2.1 0.0 34.4 0.00 0.0364731 44.0
2021-01-21 09:15:00 43.7 92.5 41.7 43.7 1.7 2.4 1.3 83.5 15.9 0.01 0.0440911 44.0
2021-01-21 09:20:00 44.0 92.0 41.8 44.0 2.2 2.6 1.5 206.3 144.3 0.00 0.0420264 44.0
2021-01-21 09:25:00 44.2 91.0 41.7 44.2 0.0 2.6 1.2 42.1 90.7 0.00 0.0384263 44.0
2021-01-21 09:30:00 44.6 90.2 41.9 44.6 1.2 2.1 1.3 19.5 67.7 0.00 0.0376200 44.0
2021-01-21 09:35:00 44.7 89.1 41.7 44.7 3.5 3.5 1.7 9.6 91.6 0.00 0.0387582 44.1
2021-01-21 09:40:00 44.7 89.3 41.7 44.7 1.7 3.5 2.6 183.7 82.3 0.00 0.0413921 44.1
2021-01-21 09:45:00 45.2 89.2 42.3 45.2 2.8 3.5 2.0 83.5 127.8 0.00 0.0476752 44.1
2021-01-21 09:50:00 45.2 86.7 41.5 45.2 2.6 3.7 2.5 80.2 160.1 0.00 0.0438207 44.1
2021-01-21 09:55:00 45.4 87.4 41.9 45.4 0.8 3.0 1.5 170.0 155.9 0.00 0.0455006 44.1
2021-01-21 10:00:00 45.7 85.1 41.5 45.7 2.1 3.0 1.6 99.2 95.6 0.00 0.0500066 44.1
2021-01-21 10:05:00 45.7 86.1 41.8 45.7 3.3 3.3 2.7 214.2 160.2 0.00 0.0463352 44.1
2021-01-21 10:10:00 46.1 89.1 43.1 46.1 4.0 4.7 3.4 179.5 145.3 0.00 0.0484139 44.1
2021-01-21 10:15:00 46.4 87.7 42.9 46.4 3.1 4.9 3.5 149.2 110.0 0.00 0.0480515 44.2
2021-01-21 10:20:00 46.3 86.4 42.5 46.3 6.0 6.0 5.1 131.2 141.6 0.00 0.0541994 44.2
2021-01-21 10:25:00 46.4 88.9 43.3 46.4 6.2 7.2 5.6 146.3 135.2 0.00 0.0533255 44.2
2021-01-21 10:30:00 46.5 87.3 42.9 46.5 6.9 6.9 5.7 168.9 134.5 0.00 0.0521258 44.2
2021-01-21 10:35:00 46.5 85.0 42.2 46.5 4.6 6.5 5.4 191.8 142.8 0.00 0.0539369 44.2
2021-01-21 10:40:00 46.6 85.8 42.6 46.6 3.1 5.1 3.6 3.9 89.9 0.00 0.0578546 44.3
2021-01-21 10:45:00 46.9 86.0 42.9 46.9 1.3 3.7 2.7 11.9 94.6 0.00 0.0669408 44.3
2021-01-21 10:50:00 47.0 85.7 42.9 47.0 4.4 5.6 4.4 1.6 79.8 0.00 0.0729425 44.3
2021-01-21 10:55:00 47.4 82.7 42.4 47.4 5.6 6.0 4.8 92.9 105.1 0.00 0.0704739 44.3
2021-01-21 11:00:00 47.4 83.9 42.7 47.4 5.5 8.0 5.9 147.0 134.3 0.00 0.0748162 44.3
2021-01-21 11:05:00 47.2 84.6 42.8 47.2 7.8 8.3 6.7 122.2 112.2 0.00 0.0781734 44.3
2021-01-21 11:10:00 47.0 84.8 42.7 47.0 8.7 9.9 8.4 130.0 99.1 0.00 0.0542002 44.4
2021-01-21 11:15:00 47.4 83.3 42.6 47.4 6.9 8.7 6.8 103.8 128.9 0.00 0.0880167 44.4
2021-01-21 11:20:00 47.9 83.5 43.1 47.9 4.9 7.4 4.1 62.8 110.8 0.00 0.0853689 44.4
2021-01-21 11:25:00 48.0 80.7 42.3 48.0 6.9 6.9 4.6 44.2 67.0 0.00 0.0518108 44.4
2021-01-21 11:30:00 47.9 83.2 43.1 47.9 3.3 6.9 4.7 73.9 62.2 0.00 0.0322571 44.5
2021-01-21 11:35:00 48.3 82.0 43.1 48.3 2.6 6.5 4.0 22.4 68.9 0.00 0.0308513 44.5
2021-01-21 11:40:00 48.4 79.3 42.3 48.4 3.1 5.8 4.0 149.9 48.3 0.00 0.0412036 44.5
2021-01-21 11:45:00 48.8 79.2 42.7 48.8 4.7 5.6 3.6 13.5 54.2 0.00 0.0510950 44.5
2021-01-21 11:50:00 49.2 78.9 42.9 49.2 5.6 8.0 5.9 47.1 90.4 0.00 0.0531871 44.5
2021-01-21 11:55:00 49.4 80.1 43.6 49.4 8.3 8.3 5.6 27.9 67.2 0.00 0.0667421 44.6
2021-01-21 12:00:00 49.6 77.6 42.9 49.6 6.0 8.0 6.3 120.9 67.4 0.00 0.0771350 44.6
2021-01-21 12:05:00 49.7 78.8 43.4 49.7 3.1 6.5 4.4 55.6 68.2 0.00 0.0727875 44.6
2021-01-21 12:10:00 49.9 76.6 42.8 49.9 5.3 6.2 4.3 44.6 100.8 0.00 0.0593108 44.6
2021-01-21 12:15:00 49.6 78.0 43.0 49.6 4.4 6.2 3.9 44.4 62.4 0.00 0.0587594 44.7
2021-01-21 12:20:00 49.7 79.6 43.7 49.7 2.4 5.3 3.5 17.9 56.7 0.00 0.0688442 44.7
2021-01-21 12:25:00 49.7 80.6 44.0 49.7 3.1 6.0 3.6 226.0 70.0 0.00 0.0541122 44.7
2021-01-21 12:30:00 49.9 78.8 43.6 49.9 1.2 3.1 2.3 11.2 39.6 0.00 0.0654643 44.7
2021-01-21 12:35:00 50.3 77.6 43.6 50.3 2.4 3.1 2.3 110.5 168.7 0.00 0.0814194 44.8
2021-01-21 12:40:00 50.4 76.0 43.1 50.4 2.2 4.0 2.5 17.4 137.1 0.00 0.0817615 44.8
2021-01-21 12:45:00 50.4 78.1 43.9 50.4 6.0 6.7 2.9 161.0 157.8 0.00 0.0735527 44.8
2021-01-21 12:50:00 50.6 81.0 44.9 50.6 2.6 6.5 4.3 48.9 142.5 0.00 0.0869854 44.8
2021-01-21 12:55:00 50.8 78.4 44.3 50.8 3.5 4.4 2.7 132.5 120.2 0.00 0.0756708 44.9
2021-01-21 13:00:00 50.7 79.2 44.5 50.7 4.9 6.9 4.3 158.3 129.5 0.00 0.0631662 44.9
2021-01-21 13:05:00 50.8 79.8 44.8 50.8 5.5 6.0 4.5 171.9 150.8 0.00 0.0481112 44.9
2021-01-21 13:10:00 50.7 80.3 44.9 50.7 4.6 5.8 4.1 152.5 140.3 0.00 0.0388807 44.9
2021-01-21 13:15:00 50.4 83.1 45.4 50.4 4.0 5.6 4.0 210.1 170.6 0.00 0.0364337 44.9
2021-01-21 13:20:00 50.4 80.7 44.7 50.4 3.3 4.7 3.2 193.4 148.2 0.00 0.0442768 45.0
2021-01-21 13:25:00 50.8 80.6 45.1 50.8 1.0 4.4 2.3 221.1 92.6 0.00 0.0668425 45.0
2021-01-21 13:30:00 51.2 79.1 45.0 51.2 4.2 4.7 3.0 10.5 61.3 0.00 0.0773540 45.0
2021-01-21 13:35:00 51.3 79.0 45.0 51.3 2.1 4.4 2.9 0.0 5.8 0.00 0.0780719 45.1
2021-01-21 13:40:00 51.3 78.3 44.8 51.3 2.6 3.1 2.3 0.0 0.0 0.00 0.0563793 45.1
2021-01-21 13:45:00 51.3 78.6 44.8 51.3 4.6 4.7 2.5 0.0 0.1 0.00 0.0567465 45.1
2021-01-21 13:50:00 51.2 80.7 45.4 51.2 4.4 5.5 3.3 8.1 1.8 0.00 0.0464002 45.1
2021-01-21 13:55:00 51.0 79.6 45.0 51.0 2.8 4.0 2.6 168.7 131.3 0.00 0.0387337 45.2
2021-01-21 14:00:00 51.0 79.2 44.8 51.0 1.3 3.7 2.1 73.7 110.1 0.00 0.0373882 45.2
2021-01-21 14:05:00 51.3 79.7 45.2 51.3 2.1 2.2 1.4 82.5 144.2 0.00 0.0365811 45.2
2021-01-21 14:10:00 51.2 78.6 44.8 51.2 1.9 3.8 2.7 4.3 39.2 0.00 0.0396944 45.2
2021-01-21 14:15:00 51.5 80.3 45.6 51.5 2.6 2.8 1.6 181.0 112.7 0.00 0.0456386 45.3
2021-01-21 14:20:00 51.8 79.1 45.5 51.8 2.6 3.3 2.6 136.0 147.1 0.00 0.0743827 45.3
2021-01-21 14:25:00 52.1 77.2 45.2 52.1 6.3 7.4 4.7 207.7 146.8 0.00 0.0885259 45.3
2021-01-21 14:30:00 52.0 78.4 45.5 52.0 1.5 6.2 3.0 180.9 157.7 0.00 0.0835622 45.4
2021-01-21 14:35:00 52.5 76.3 45.2 52.5 4.2 5.5 3.3 30.9 111.6 0.00 0.0830616 45.4
2021-01-21 14:40:00 52.4 77.0 45.4 52.4 3.3 5.3 3.8 142.2 132.9 0.00 0.0904413 45.4
2021-01-21 14:45:00 53.3 78.8 46.9 53.3 1.2 4.4 2.5 0.7 139.1 0.00 0.1349708 45.4
2021-01-21 14:50:00 54.2 73.0 45.7 54.2 2.2 3.1 2.2 194.7 72.5 0.00 0.1217768 45.4
2021-01-21 14:55:00 53.2 77.2 46.3 53.2 2.8 5.5 3.5 21.9 25.7 0.00 0.0616214 45.5
2021-01-21 15:00:00 52.8 78.6 46.3 52.8 6.2 6.5 4.1 4.0 15.1 0.00 0.0792027 45.5
2021-01-21 15:05:00 52.9 77.6 46.0 52.9 6.2 8.0 6.0 56.1 61.8 0.00 0.0910727 45.5
2021-01-21 15:10:00 52.8 77.0 45.8 52.8 8.7 8.7 6.2 119.3 102.6 0.00 0.0562793 45.6
2021-01-21 15:15:00 52.7 77.0 45.7 52.7 8.0 8.0 5.7 11.1 62.1 0.00 0.0906295 45.6
2021-01-21 15:20:00 53.2 77.8 46.5 53.2 6.3 9.2 6.6 2.3 15.8 0.00 0.1515751 45.6
2021-01-21 15:25:00 52.9 76.5 45.7 52.9 5.6 8.5 6.6 34.7 13.7 0.00 0.0517861 45.6
2021-01-21 15:30:00 52.3 78.2 45.7 52.3 4.6 6.3 5.1 149.8 47.3 0.00 0.0231098 45.6
2021-01-21 15:35:00 52.3 78.3 45.7 52.3 4.6 6.3 5.1 10.4 132.8 0.00 0.0297258 45.6
2021-01-21 15:40:00 52.4 78.0 45.7 52.4 5.3 6.3 4.7 8.8 108.1 0.00 0.0420012 45.7
2021-01-21 15:45:00 52.4 78.2 45.8 52.4 6.9 7.1 5.4 163.2 137.6 0.00 0.0473573 45.7
2021-01-21 15:50:00 52.4 81.0 46.7 52.4 4.6 6.7 5.4 136.9 131.2 0.00 0.0445471 45.7
2021-01-21 15:55:00 52.5 79.7 46.4 52.5 5.5 5.6 4.6 160.9 147.9 0.00 0.0411296 45.8
2021-01-21 16:00:00 52.5 80.0 46.5 52.5 4.0 6.2 4.8 79.6 141.6 0.00 0.0370096 45.8
2021-01-21 16:05:00 52.6 80.1 46.6 52.6 4.0 5.6 4.2 167.2 149.1 0.00 0.0348627 45.8
2021-01-21 16:10:00 52.6 78.8 46.1 52.6 5.5 6.7 4.9 122.7 146.4 0.00 0.0349241 45.8
2021-01-21 16:15:00 52.7 78.5 46.2 52.7 3.3 5.3 4.1 161.7 139.0 0.00 0.0328962 45.9
2021-01-21 16:20:00 52.6 79.7 46.5 52.6 2.8 4.6 3.6 169.6 140.1 0.00 0.0368790 45.9
2021-01-21 16:25:00 52.8 78.6 46.3 52.8 3.1 4.9 3.7 173.5 125.4 0.00 0.0396149 45.9
2021-01-21 16:30:00 52.8 78.4 46.3 52.8 4.4 5.3 3.6 139.7 131.6 0.00 0.0414138 45.9
2021-01-21 16:35:00 52.8 78.8 46.3 52.8 4.7 5.5 4.2 79.8 124.3 0.00 0.0348459 45.9
2021-01-21 16:40:00 52.5 80.2 46.6 52.5 4.2 5.1 4.0 156.7 125.2 0.00 0.0196475 46.0
2021-01-21 16:45:00 52.6 79.6 46.5 52.6 3.5 4.6 3.7 133.0 131.1 0.00 0.0293658 46.0
2021-01-21 16:50:00 52.6 80.1 46.7 52.6 2.4 4.2 3.1 124.3 126.9 0.00 0.0351061 46.0
2021-01-21 16:55:00 52.6 79.8 46.5 52.6 2.4 3.1 2.5 9.1 86.3 0.00 0.0286869 46.0
2021-01-21 17:00:00 52.3 80.3 46.4 52.3 2.6 3.8 3.0 11.9 31.2 0.00 0.0159583 46.0
2021-01-21 17:05:00 52.0 81.4 46.4 52.0 3.7 4.2 3.4 5.4 11.1 0.00 0.0088815 46.0
2021-01-21 17:10:00 51.8 81.8 46.4 51.8 3.7 4.7 3.7 115.1 25.5 0.00 0.0062877 46.0
2021-01-21 17:15:00 51.5 82.1 46.3 51.5 3.7 3.8 3.3 6.6 25.5 0.00 0.0045395 46.0
2021-01-21 17:20:00 51.2 82.8 46.1 51.2 3.1 4.4 3.5 6.4 14.6 0.00 0.0032364 46.0
2021-01-21 17:25:00 50.7 83.7 46.0 50.7 3.7 4.2 3.4 9.0 11.8 0.00 0.0019707 46.0
2021-01-21 17:30:00 50.4 83.9 45.8 50.4 2.6 4.0 2.9 56.8 14.7 0.00 0.0007162 46.0
2021-01-21 17:35:00 50.1 83.9 45.4 50.1 2.1 3.1 1.7 0.0 8.4 0.00 0.0001845 46.0
2021-01-21 17:40:00 49.4 85.3 45.2 49.4 1.7 2.2 1.9 81.3 12.2 0.00 0.0000000 46.1
2021-01-21 17:45:00 48.8 86.1 44.9 48.8 0.8 1.7 0.5 121.0 313.8 0.00 0.0000000 46.1
2021-01-21 17:50:00 48.8 87.9 45.4 48.8 1.5 1.5 0.5 214.7 180.8 0.00 0.0000000 46.0
2021-01-21 17:55:00 48.8 87.9 45.4 48.8 0.8 1.5 1.1 23.5 128.4 0.00 0.0000000 46.1
2021-01-21 18:00:00 48.2 88.4 44.9 48.2 2.6 2.6 1.1 67.7 101.1 0.00 0.0000000 46.1
2021-01-21 18:05:00 47.9 89.5 44.9 47.9 1.9 2.6 2.4 101.8 112.9 0.00 0.0000000 46.1
2021-01-21 18:10:00 47.4 89.4 44.4 47.4 2.2 2.4 1.8 21.5 67.4 0.00 0.0000000 46.0
2021-01-21 18:15:00 46.6 91.4 44.2 46.6 2.4 2.6 2.0 211.2 175.7 0.00 0.0000000 46.0
2021-01-21 18:20:00 46.7 91.6 44.4 46.7 3.3 3.3 2.7 51.4 119.6 0.00 0.0000000 46.0
2021-01-21 18:25:00 45.8 91.1 43.3 45.8 2.4 3.3 2.7 158.9 78.5 0.00 0.0000000 46.0
2021-01-21 18:30:00 44.7 94.6 43.2 44.7 4.7 5.6 4.5 68.9 136.9 0.00 0.0000000 46.0
2021-01-21 18:35:00 45.2 95.0 43.9 45.2 2.4 4.9 3.3 34.1 115.5 0.00 0.0000000 46.0
2021-01-21 18:40:00 45.3 94.1 43.7 45.3 0.0 2.6 1.2 50.9 64.4 0.00 0.0000000 46.0
2021-01-21 18:45:00 44.7 92.9 42.8 44.7 2.2 2.2 0.4 209.4 2.7 0.00 0.0000000 46.0
2021-01-21 18:50:00 44.0 93.8 42.3 44.0 1.9 3.3 2.4 154.2 154.1 0.00 0.0000000 46.0
2021-01-21 18:55:00 44.0 94.2 42.4 44.0 2.2 2.2 1.8 117.2 145.7 0.00 0.0000000 45.9
2021-01-21 19:00:00 43.2 93.4 41.4 43.2 1.3 3.5 2.6 32.8 97.4 0.00 0.0000000 45.9
2021-01-21 19:05:00 42.9 94.2 41.3 42.9 0.0 1.3 0.3 1.4 126.2 0.00 0.0000000 45.9
2021-01-21 19:10:00 42.5 94.1 40.9 42.5 2.8 2.8 1.8 0.0 25.1 0.00 0.0000000 45.9
2021-01-21 19:15:00 41.5 93.8 39.9 41.5 2.2 3.1 2.2 1.3 6.5 0.00 0.0000000 45.9
2021-01-21 19:20:00 41.5 94.7 40.0 41.5 1.5 3.0 2.0 126.6 31.2 0.00 0.0000000 45.9
2021-01-21 19:25:00 41.9 95.2 40.6 41.9 2.8 2.8 1.7 7.4 16.9 0.00 0.0000000 45.8
2021-01-21 19:30:00 41.6 95.5 40.4 41.6 2.6 2.8 2.5 154.4 37.5 0.00 0.0000000 45.8
2021-01-21 19:35:00 41.2 96.0 40.2 41.2 3.3 3.7 3.1 111.1 126.3 0.00 0.0000000 45.8
2021-01-21 19:40:00 41.8 97.2 41.1 41.8 2.8 3.3 3.0 154.0 128.8 0.00 0.0000000 45.8
2021-01-21 19:45:00 42.0 96.6 41.1 42.0 0.0 2.4 0.9 3.6 148.7 0.00 0.0000000 45.7
2021-01-21 19:50:00 42.1 95.8 41.0 42.1 1.7 2.1 1.1 1.0 9.7 0.00 0.0000000 45.7
2021-01-21 19:55:00 41.3 96.2 40.3 41.3 1.0 1.9 1.3 3.5 1.7 0.00 0.0000000 45.7
2021-01-21 20:00:00 41.3 96.5 40.4 41.3 0.0 0.8 0.1 142.9 2.1 0.00 0.0000000 45.7
2021-01-21 20:05:00 41.6 96.6 40.7 41.6 2.2 2.2 1.2 133.7 130.1 0.00 0.0000000 45.7
2021-01-21 20:10:00 42.4 96.9 41.6 42.4 1.5 3.0 2.4 200.4 144.4 0.00 0.0000000 45.6
2021-01-21 20:15:00 41.5 96.9 40.7 41.5 0.0 2.1 1.1 3.7 62.3 0.00 0.0000000 45.6
2021-01-21 20:20:00 40.7 95.8 39.6 40.7 1.9 1.9 0.6 2.1 2.0 0.00 0.0000000 45.6
2021-01-21 20:25:00 39.8 96.3 38.8 39.8 2.1 3.7 2.6 89.7 73.2 0.00 0.0000000 45.6
2021-01-21 20:30:00 40.1 97.0 39.3 40.1 2.2 2.4 1.9 2.7 359.4 0.00 0.0000000 45.5
2021-01-21 20:35:00 39.5 96.4 38.6 39.5 0.0 2.4 1.5 1.8 1.8 0.00 0.0000000 45.5
2021-01-21 20:40:00 39.3 96.9 38.5 39.3 0.0 0.0 0.0 131.5 0.0 0.00 0.0000000 45.5
2021-01-21 20:45:00 40.6 97.3 39.9 40.6 2.8 3.1 1.1 71.5 176.3 0.00 0.0000028 45.5
2021-01-21 20:50:00 39.6 96.8 38.7 39.6 0.0 2.6 1.8 2.0 97.1 0.00 0.0000000 45.5
2021-01-21 20:55:00 38.7 96.5 37.8 38.7 1.2 1.3 0.3 136.0 166.0 0.00 0.0000000 45.4
2021-01-21 21:00:00 38.5 97.4 37.8 38.5 3.7 3.7 2.3 170.1 68.5 0.00 0.0000000 45.4
2021-01-21 21:05:00 39.7 98.3 39.3 39.7 3.3 4.0 3.5 159.3 132.2 0.00 0.0000000 45.4
2021-01-21 21:10:00 39.3 97.5 38.7 39.3 0.0 3.3 1.7 1.4 88.6 0.00 0.0000000 45.4
2021-01-21 21:15:00 38.4 97.5 37.7 38.4 3.1 4.0 3.1 1.8 0.3 0.00 0.0000000 45.3
2021-01-21 21:20:00 38.5 97.3 37.9 38.5 1.0 3.0 1.8 4.4 2.2 0.00 0.0000000 45.3
2021-01-21 21:25:00 38.1 97.7 37.5 38.1 0.0 0.8 0.0 36.7 4.4 0.00 0.0000000 45.3
2021-01-21 21:30:00 38.8 98.2 38.4 38.8 0.0 1.3 0.8 157.9 17.4 0.00 0.0000000 45.3
2021-01-21 21:35:00 39.6 98.1 39.1 39.6 1.0 2.4 1.3 118.5 31.6 0.00 0.0000000 45.3
2021-01-21 21:40:00 38.4 96.7 37.5 38.4 2.4 2.4 1.6 217.3 32.8 0.00 0.0000000 45.2
2021-01-21 21:45:00 40.0 99.0 39.7 40.0 2.8 6.2 3.7 78.4 116.8 0.00 0.0000105 45.2
2021-01-21 21:50:00 41.1 99.0 40.8 41.1 4.2 4.7 2.9 60.2 126.5 0.00 0.0000000 45.2
2021-01-21 21:55:00 43.1 99.3 43.0 43.1 5.5 6.3 4.6 17.8 13.5 0.00 0.0000170 45.2
2021-01-21 22:00:00 42.8 98.5 42.4 42.8 4.4 4.9 2.5 7.4 58.2 0.00 0.0000000 45.2
2021-01-21 22:05:00 42.2 96.4 41.2 42.2 0.0 3.3 1.1 179.7 354.2 0.00 0.0000000 45.1
2021-01-21 22:10:00 41.8 96.9 41.0 41.8 0.0 2.1 0.7 214.7 85.2 0.00 0.0000000 45.1
2021-01-21 22:15:00 41.6 96.2 40.6 41.6 2.6 3.7 1.9 155.4 152.3 0.00 0.0000000 45.1
2021-01-21 22:20:00 42.0 96.2 41.0 42.0 4.2 4.9 3.3 186.3 139.3 0.00 0.0000000 45.1
2021-01-21 22:25:00 42.2 96.7 41.3 42.2 3.3 4.2 3.3 152.8 111.6 0.00 0.0000000 45.1
2021-01-21 22:30:00 41.9 97.0 41.1 41.9 3.3 4.0 3.2 154.0 139.2 0.00 0.0000000 45.0
2021-01-21 22:35:00 42.0 96.3 41.0 42.0 3.1 3.7 3.3 26.1 133.0 0.00 0.0000000 45.0
2021-01-21 22:40:00 41.3 96.1 40.3 41.3 1.7 3.0 2.3 59.7 126.4 0.00 0.0000000 45.0
2021-01-21 22:45:00 40.9 97.0 40.1 40.9 1.3 3.0 2.0 56.1 64.0 0.00 0.0000000 45.0
2021-01-21 22:50:00 39.6 95.5 38.4 39.6 2.6 3.3 2.2 3.2 7.8 0.00 0.0000000 45.0
2021-01-21 22:55:00 39.9 96.8 39.0 39.9 1.2 2.6 1.8 223.8 242.5 0.00 0.0000000 44.9
2021-01-21 23:00:00 39.6 95.6 38.4 39.6 3.8 3.8 2.2 198.8 226.4 0.00 0.0000000 44.9
2021-01-21 23:05:00 38.0 96.5 37.1 38.0 3.0 4.6 3.8 199.8 239.0 0.00 0.0000000 44.9
2021-01-21 23:10:00 38.6 97.2 37.9 38.6 2.8 3.8 3.3 170.0 195.0 0.00 0.0000000 44.9
2021-01-21 23:15:00 39.0 96.8 38.2 39.0 2.1 3.8 2.7 113.3 180.0 0.00 0.0000000 44.9
2021-01-21 23:20:00 38.4 97.5 37.7 38.4 3.0 3.5 2.9 113.0 139.1 0.00 0.0000000 44.9
2021-01-21 23:25:00 39.9 97.9 39.4 39.9 2.6 3.1 2.6 213.2 166.1 0.00 0.0000000 44.8
2021-01-21 23:30:00 38.4 96.8 37.5 38.4 3.7 4.0 2.9 3.5 233.5 0.00 0.0000000 44.8
2021-01-21 23:35:00 36.8 97.1 36.0 36.8 2.1 3.8 2.8 55.0 344.3 0.00 0.0000000 44.8
2021-01-21 23:40:00 37.0 97.2 36.2 37.0 0.0 2.2 1.6 226.1 130.7 0.00 0.0000000 44.8
2021-01-21 23:45:00 36.5 97.0 35.7 36.5 0.0 1.2 0.3 179.7 169.3 0.00 0.0000000 44.8
2021-01-21 23:50:00 36.8 97.7 36.2 36.8 1.7 1.7 0.6 26.5 10.7 0.00 0.0000005 44.8
2021-01-21 23:55:00 36.8 97.3 36.1 36.8 3.1 3.1 1.5 4.2 11.7 0.00 0.0000000 44.7
2021-01-22 00:00:00 37.6 98.1 37.1 37.6 1.5 4.2 3.1 346.3 358.3 0.00 0.0000055 44.7
2021-01-22 00:05:00 36.8 97.4 36.2 36.8 2.2 2.4 0.6 29.0 137.2 0.00 0.0000000 44.7
2021-01-22 00:10:00 36.5 97.8 36.0 36.5 2.1 2.2 1.9 166.2 126.3 0.00 0.0000058 44.7
2021-01-22 00:15:00 36.4 97.6 35.8 36.4 2.2 3.3 2.2 157.6 139.7 0.00 0.0002413 44.7
2021-01-22 00:20:00 36.7 97.9 36.2 36.7 4.2 4.2 3.1 50.9 92.3 0.00 0.0001238 44.7
2021-01-22 00:25:00 38.4 99.0 38.1 38.4 2.8 5.5 3.6 108.9 112.0 0.00 0.0002430 44.6
2021-01-22 00:30:00 38.4 98.5 38.0 38.4 2.6 4.0 3.1 139.2 130.9 0.00 0.0001240 44.6
2021-01-22 00:35:00 39.6 99.2 39.4 39.6 3.3 4.7 3.7 132.9 121.9 0.00 0.0001728 44.6
2021-01-22 00:40:00 39.7 98.8 39.3 39.7 4.6 4.9 4.1 129.2 131.8 0.00 0.0000370 44.6
2021-01-22 00:45:00 39.6 98.6 39.2 39.6 3.0 5.6 4.0 18.8 95.4 0.00 0.0000000 44.6
2021-01-22 00:50:00 39.8 98.7 39.4 39.8 3.1 4.0 3.3 70.8 43.0 0.00 0.0000000 44.6
2021-01-22 00:55:00 39.6 98.9 39.3 39.6 5.3 5.6 4.6 19.7 89.6 0.00 0.0000000 44.6
2021-01-22 01:00:00 39.3 98.8 39.0 39.3 3.8 6.5 4.9 156.8 122.9 0.00 0.0000000 44.6
2021-01-22 01:05:00 39.6 99.1 39.4 39.6 3.3 5.1 3.8 175.6 136.0 0.00 0.0000000 44.5
2021-01-22 01:10:00 40.0 99.3 39.8 40.0 2.4 4.6 3.2 52.1 109.0 0.00 0.0000563 44.5
2021-01-22 01:15:00 40.3 99.3 40.1 40.3 2.6 2.6 1.7 11.0 100.9 0.00 0.0000685 44.5
2021-01-22 01:20:00 41.0 99.4 40.8 41.0 2.8 4.9 3.0 24.6 31.3 0.00 0.0000805 44.5
2021-01-22 01:25:00 40.9 99.4 40.8 40.9 3.3 3.3 2.1 151.5 128.3 0.00 0.0000230 44.5
2021-01-22 01:30:00 41.2 99.3 41.0 41.2 3.7 3.7 3.0 81.7 130.2 0.00 0.0000283 44.5
2021-01-22 01:35:00 41.3 99.5 41.2 41.3 4.0 4.7 3.8 162.0 134.2 0.00 0.0000058 44.5
2021-01-22 01:40:00 41.3 99.4 41.2 41.3 4.6 4.6 3.8 145.8 138.4 0.00 0.0000008 44.5
2021-01-22 01:45:00 41.5 99.6 41.4 41.5 4.0 4.7 4.0 67.6 111.2 0.00 0.0000048 44.4
2021-01-22 01:50:00 41.8 99.6 41.7 41.8 3.5 4.6 3.8 125.7 114.8 0.00 0.0000038 44.4
2021-01-22 01:55:00 41.8 99.5 41.7 41.8 2.6 3.3 2.4 34.4 111.2 0.00 0.0000000 44.4
2021-01-22 02:00:00 41.6 99.4 41.5 41.6 2.6 3.1 2.3 80.8 83.2 0.00 0.0000000 44.4
2021-01-22 02:05:00 41.5 99.5 41.4 41.5 1.0 2.4 1.8 126.4 95.3 0.00 0.0000000 44.4
2021-01-22 02:10:00 41.5 99.5 41.4 41.5 2.2 2.6 1.8 134.0 116.0 0.00 0.0000000 44.4
2021-01-22 02:15:00 41.5 99.6 41.4 41.5 3.1 3.8 2.9 137.8 130.6 0.00 0.0000000 44.4
2021-01-22 02:20:00 41.5 99.6 41.4 41.5 3.7 3.7 3.1 119.1 101.0 0.00 0.0000000 44.4
2021-01-22 02:25:00 41.4 99.6 41.3 41.4 1.7 3.0 2.2 133.4 107.4 0.00 0.0000000 44.4
2021-01-22 02:30:00 41.4 99.6 41.3 41.4 2.4 2.6 1.7 50.5 113.4 0.00 0.0000000 44.4
2021-01-22 02:35:00 41.4 99.7 41.3 41.4 2.2 3.7 2.6 154.2 88.1 0.00 0.0000000 44.4
2021-01-22 02:40:00 41.5 99.7 41.5 41.5 1.3 2.8 1.7 53.6 122.0 0.00 0.0000000 44.4
2021-01-22 02:45:00 41.5 99.7 41.5 41.5 1.0 1.3 0.5 179.5 147.7 0.00 0.0000000 44.4
2021-01-22 02:50:00 41.6 99.7 41.5 41.6 0.0 1.2 0.3 192.8 168.9 0.00 0.0000000 44.4
2021-01-22 02:55:00 41.6 99.6 41.5 41.6 0.0 1.0 0.1 136.2 158.8 0.00 0.0000000 44.4
2021-01-22 03:00:00 41.6 99.7 41.5 41.6 0.0 1.2 0.5 175.5 161.7 0.00 0.0000000 44.4
2021-01-22 03:05:00 41.5 99.7 41.5 41.5 2.2 2.6 1.2 209.4 163.5 0.00 0.0000000 44.4
2021-01-22 03:10:00 41.3 99.6 41.2 41.3 1.7 3.7 2.7 175.0 174.9 0.00 0.0000000 44.4
2021-01-22 03:15:00 41.2 99.7 41.1 41.2 0.0 2.6 1.5 118.8 159.1 0.00 0.0000000 44.4
2021-01-22 03:20:00 41.2 99.7 41.1 41.2 0.8 2.4 1.2 60.7 159.6 0.00 0.0000000 44.4
2021-01-22 03:25:00 41.2 99.7 41.1 41.2 2.1 2.4 1.4 213.3 163.6 0.00 0.0000000 44.4
2021-01-22 03:30:00 41.1 99.7 41.0 41.1 2.4 3.0 2.3 108.6 148.7 0.01 0.0000000 44.4
2021-01-22 03:35:00 41.2 99.8 41.1 41.2 1.5 2.1 1.7 107.0 174.4 0.00 0.0000000 44.4
2021-01-22 03:40:00 41.2 99.8 41.1 41.2 2.1 3.0 2.4 217.3 176.6 0.00 0.0000000 44.4
2021-01-22 03:45:00 41.2 99.8 41.1 41.2 0.0 2.2 0.9 153.0 173.3 0.00 0.0000000 44.4
2021-01-22 03:50:00 41.2 99.8 41.1 41.2 0.0 1.0 0.1 104.7 172.9 0.00 0.0000000 44.4
2021-01-22 03:55:00 41.2 99.8 41.2 41.2 1.0 1.3 0.6 160.7 158.9 0.00 0.0000000 44.4
2021-01-22 04:00:00 41.2 99.8 41.2 41.2 1.7 1.9 0.5 193.4 182.1 0.00 0.0000000 44.4
2021-01-22 04:05:00 41.2 99.8 41.2 41.2 0.8 1.7 0.9 99.7 170.0 0.00 0.0000000 44.4
2021-01-22 04:10:00 41.3 99.8 41.2 41.3 3.0 3.0 1.2 95.6 134.0 0.00 0.0000000 44.4
2021-01-22 04:15:00 41.1 99.8 41.0 41.1 2.2 3.8 3.0 178.5 144.3 0.00 0.0000000 44.4
2021-01-22 04:20:00 41.2 99.8 41.1 41.2 1.9 2.2 1.4 132.2 129.2 0.00 0.0000000 44.4
2021-01-22 04:25:00 41.0 99.8 41.0 41.0 1.7 1.9 1.5 125.1 114.1 0.00 0.0000000 44.4
2021-01-22 04:30:00 41.0 99.8 41.0 41.0 0.8 1.9 1.5 77.2 96.8 0.00 0.0000000 44.4
2021-01-22 04:35:00 41.0 99.8 41.0 41.0 2.2 2.2 1.1 144.2 89.9 0.00 0.0000000 44.4
2021-01-22 04:40:00 40.9 99.9 40.9 40.9 1.7 2.6 2.2 104.7 121.3 0.00 0.0000000 44.4
2021-01-22 04:45:00 41.0 99.9 41.0 41.0 0.0 1.5 0.7 34.8 68.6 0.00 0.0000000 44.4
2021-01-22 04:50:00 41.1 99.9 41.1 41.1 0.8 1.0 0.1 34.9 27.6 0.00 0.0000000 44.4
2021-01-22 04:55:00 41.0 99.9 41.0 41.0 1.7 2.2 1.7 49.8 52.6 0.00 0.0000000 44.4
2021-01-22 05:00:00 41.1 100.0 41.1 41.1 1.3 2.1 1.6 45.4 56.4 0.00 0.0000000 44.4
2021-01-22 05:05:00 41.2 99.9 41.2 41.2 0.0 1.3 0.2 10.1 25.6 0.00 0.0000000 44.4
2021-01-22 05:10:00 41.3 99.9 41.3 41.3 0.0 0.0 0.0 89.2 0.0 0.00 0.0000000 44.4
2021-01-22 05:15:00 41.3 99.9 41.3 41.3 0.0 0.0 0.0 89.8 0.0 0.00 0.0000000 44.5
2021-01-22 05:20:00 41.3 99.9 41.3 41.3 0.0 0.0 0.0 41.8 0.0 0.00 0.0000000 44.5
2021-01-22 05:25:00 41.3 99.9 41.3 41.3 1.0 1.0 0.1 15.2 36.6 0.00 0.0000000 44.5
2021-01-22 05:30:00 41.3 100.0 41.3 41.3 1.2 1.7 1.0 44.5 57.3 0.00 0.0000000 44.5
2021-01-22 05:35:00 41.3 100.0 41.3 41.3 0.0 1.7 0.5 24.4 123.1 0.00 0.0000000 44.5
2021-01-22 05:40:00 41.3 100.0 41.3 41.3 1.2 1.9 1.0 34.2 39.5 0.00 0.0000000 44.5
2021-01-22 05:45:00 41.4 100.0 41.4 41.4 0.0 1.9 1.1 25.7 40.3 0.00 0.0000000 44.5
2021-01-22 05:50:00 41.3 100.0 41.3 41.3 3.0 3.1 1.3 21.8 23.7 0.00 0.0000000 44.5
2021-01-22 05:55:00 41.4 100.0 41.4 41.4 2.2 3.0 2.2 113.4 146.6 0.00 0.0000000 44.5
2021-01-22 06:00:00 41.5 100.0 41.5 41.5 3.3 3.3 2.2 151.9 134.3 0.00 0.0000000 44.5
2021-01-22 06:05:00 41.4 100.0 41.4 41.4 0.8 3.1 1.6 131.2 122.6 0.00 0.0000000 44.5
2021-01-22 06:10:00 41.3 99.9 41.3 41.3 2.6 2.6 1.6 153.8 137.1 0.00 0.0000000 44.5
2021-01-22 06:15:00 41.3 100.0 41.3 41.3 0.0 2.1 0.2 71.5 129.8 0.00 0.0000000 44.5
2021-01-22 06:20:00 41.2 99.9 41.1 41.2 2.1 3.5 2.1 138.1 143.3 0.00 0.0000000 44.5
2021-01-22 06:25:00 41.2 100.0 41.2 41.2 1.0 2.2 1.7 163.0 159.7 0.00 0.0000000 44.5
2021-01-22 06:30:00 41.0 99.9 40.9 41.0 1.9 3.0 2.2 170.6 127.9 0.00 0.0000000 44.5
2021-01-22 06:35:00 40.9 100.0 40.9 40.9 1.5 2.6 1.7 105.2 98.7 0.00 0.0000000 44.5
2021-01-22 06:40:00 40.9 100.0 40.9 40.9 0.0 1.5 0.4 158.0 73.9 0.00 0.0000000 44.5

Data is courtesy of the NM Climate Center. DO NOT USE IN LEGAL PROCEEDINGS.